createdAt,value
2023-04-03T00:00:37.785Z,2.32
2023-04-03T00:03:40.381Z,2.30
2023-04-03T00:06:42.337Z,2.20
2023-04-03T00:09:44.191Z,2.29
2023-04-03T00:12:46.080Z,2.17
2023-04-03T00:15:47.984Z,2.21
2023-04-03T00:18:49.932Z,2.15
2023-04-03T00:21:51.836Z,2.12
2023-04-03T00:24:53.764Z,1.97
2023-04-03T00:27:55.788Z,1.94
2023-04-03T00:30:57.764Z,1.94
2023-04-03T00:34:00.305Z,1.86
2023-04-03T00:37:02.363Z,1.88
2023-04-03T00:40:06.238Z,1.83
2023-04-03T00:43:23.589Z,1.86
2023-04-03T00:46:25.761Z,1.78
2023-04-03T00:49:29.492Z,1.77
2023-04-03T00:52:32.017Z,1.72
2023-04-03T00:55:36.497Z,1.74
2023-04-03T00:58:42.567Z,1.73
2023-04-03T01:01:45.080Z,1.82
2023-04-03T01:04:48.297Z,1.77
2023-04-03T01:07:52.163Z,1.84
2023-04-03T01:10:54.616Z,1.78
2023-04-03T01:13:56.701Z,1.74
2023-04-03T01:16:58.542Z,1.71
2023-04-03T01:20:12.615Z,1.68
2023-04-03T01:23:45.206Z,1.60
2023-04-03T01:26:47.195Z,1.53
2023-04-03T01:29:49.251Z,1.51
2023-04-03T01:32:51.442Z,1.54
2023-04-03T01:35:53.367Z,1.55
2023-04-03T01:38:56.088Z,1.57
2023-04-03T01:41:58.139Z,1.54
2023-04-03T01:44:59.940Z,1.51
2023-04-03T01:48:02.155Z,1.62
2023-04-03T01:51:04.011Z,1.71
2023-04-03T01:54:05.915Z,1.70
2023-04-03T01:57:07.825Z,1.82
2023-04-03T02:00:10.741Z,1.82
2023-04-03T02:03:12.824Z,1.86
2023-04-03T02:06:14.864Z,1.88
2023-04-03T02:09:17.006Z,1.92
2023-04-03T02:12:18.979Z,1.87
2023-04-03T02:15:21.067Z,1.89
2023-04-03T02:18:23.081Z,1.82
2023-04-03T02:21:25.213Z,1.78
2023-04-03T02:24:27.388Z,1.77
2023-04-03T02:27:29.344Z,1.70
2023-04-03T02:30:31.513Z,1.65
2023-04-03T02:33:33.772Z,1.59
2023-04-03T02:36:35.816Z,1.62
2023-04-03T02:39:38.164Z,1.56
2023-04-03T02:42:40.479Z,1.49
2023-04-03T02:45:42.387Z,1.53
2023-04-03T02:48:44.257Z,1.45
2023-04-03T02:51:47.010Z,1.52
2023-04-03T02:54:49.033Z,1.61
2023-04-03T02:57:50.988Z,1.63
2023-04-03T03:00:52.943Z,1.63
2023-04-03T03:03:55.678Z,1.58
2023-04-03T03:06:57.593Z,1.54
2023-04-03T03:09:59.582Z,1.52
2023-04-03T03:13:02.277Z,1.47
2023-04-03T03:16:04.711Z,1.45
2023-04-03T03:19:07.774Z,1.35
2023-04-03T03:22:09.640Z,1.33
2023-04-03T03:25:11.450Z,1.37
2023-04-03T03:28:13.494Z,1.36
2023-04-03T03:31:16.366Z,1.43
2023-04-03T03:34:18.500Z,1.44
2023-04-03T03:37:20.429Z,1.41
2023-04-03T03:40:22.805Z,1.47
2023-04-03T03:43:24.808Z,1.51
2023-04-03T03:46:26.784Z,1.51
2023-04-03T03:49:29.036Z,1.60
2023-04-03T03:52:31.269Z,1.63
2023-04-03T03:55:33.226Z,1.66
2023-04-03T03:58:35.469Z,1.65
2023-04-03T04:01:37.388Z,1.77
2023-04-03T04:04:39.370Z,1.81
2023-04-03T04:07:41.368Z,1.84
2023-04-03T04:10:43.293Z,1.80
2023-04-03T04:13:45.597Z,1.84
2023-04-03T04:16:48.508Z,1.81
2023-04-03T04:19:50.540Z,1.74
2023-04-03T04:22:52.456Z,1.82
2023-04-03T04:25:54.372Z,1.76
2023-04-03T04:28:56.384Z,1.73
2023-04-03T04:31:58.235Z,1.74
2023-04-03T04:35:00.314Z,1.82
2023-04-03T04:38:02.652Z,1.74
2023-04-03T04:41:04.539Z,1.71
2023-04-03T04:44:06.575Z,1.75
2023-04-03T04:47:08.475Z,1.62
2023-04-03T04:50:11.353Z,1.67
2023-04-03T04:53:13.378Z,1.64
2023-04-03T04:56:15.414Z,1.63
2023-04-03T05:02:19.776Z,1.52
2023-04-03T05:05:21.684Z,1.58
2023-04-03T05:08:23.739Z,1.59
2023-04-03T05:11:26.668Z,1.58
2023-04-03T05:14:28.594Z,1.63
2023-04-03T05:17:30.713Z,1.67
2023-04-03T05:20:35.827Z,1.73
2023-04-03T05:23:37.733Z,1.77
2023-04-03T05:26:41.841Z,1.75
2023-04-03T05:29:45.640Z,1.72
2023-04-03T05:32:51.157Z,1.85
2023-04-03T05:35:54.485Z,1.86
2023-04-03T05:38:58.680Z,1.95
2023-04-03T05:42:01.422Z,2.10
2023-04-03T05:45:03.668Z,2.10
2023-04-03T05:48:05.983Z,2.23
2023-04-03T05:51:09.614Z,2.27
2023-04-03T05:54:24.700Z,2.41
2023-04-03T05:57:26.727Z,2.77
2023-04-03T06:00:28.889Z,3.63
2023-04-03T06:03:31.676Z,4.92
2023-04-03T06:06:52.533Z,5.43
2023-04-03T06:09:55.343Z,5.88
2023-04-03T06:12:57.340Z,6.42
2023-04-03T06:15:59.562Z,6.71
2023-04-03T06:19:01.859Z,6.60
2023-04-03T06:22:04.393Z,7.17
2023-04-03T06:25:07.287Z,7.57
2023-04-03T06:28:11.226Z,7.36
2023-04-03T06:31:13.212Z,7.20
2023-04-03T06:34:16.816Z,7.52
2023-04-03T06:37:21.128Z,6.87
2023-04-03T06:40:26.097Z,7.43
2023-04-03T06:43:28.025Z,7.54
2023-04-03T06:46:30.705Z,7.34
2023-04-03T06:49:33.019Z,8.13
2023-04-03T06:52:34.929Z,8.21
2023-04-03T06:55:37.884Z,7.70
2023-04-03T06:58:40.741Z,8.88
2023-04-03T07:01:43.035Z,9.15
2023-04-03T07:04:45.417Z,9.71
2023-04-03T07:07:47.360Z,9.44
2023-04-03T07:10:49.347Z,9.70
2023-04-03T07:13:51.581Z,10.03
2023-04-03T07:16:53.523Z,9.18
2023-04-03T07:19:57.773Z,9.69
2023-04-03T07:23:04.319Z,10.10
2023-04-03T07:26:08.076Z,10.33
2023-04-03T07:29:10.046Z,11.06
2023-04-03T07:32:12.712Z,11.17
2023-04-03T07:35:14.617Z,10.75
2023-04-03T07:38:17.226Z,10.50
2023-04-03T07:41:21.837Z,11.18
2023-04-03T07:44:23.793Z,11.59
2023-04-03T07:47:25.827Z,11.02
2023-04-03T07:50:28.282Z,10.66
2023-04-03T07:53:30.366Z,11.11
2023-04-03T07:56:33.113Z,11.26
2023-04-03T07:59:35.432Z,11.60
2023-04-03T08:02:38.067Z,12.96
2023-04-03T08:05:42.531Z,12.18
2023-04-03T08:08:44.622Z,12.53
2023-04-03T08:11:46.829Z,11.70
2023-04-03T08:14:48.869Z,12.28
2023-04-03T08:17:51.675Z,12.42
2023-04-03T08:20:53.613Z,11.88
2023-04-03T08:23:55.693Z,12.63
2023-04-03T08:26:58.432Z,13.25
2023-04-03T08:30:12.256Z,11.72
2023-04-03T08:33:19.785Z,11.33
2023-04-03T08:36:31.535Z,13.06
2023-04-03T08:39:34.521Z,12.98
2023-04-03T08:42:49.753Z,14.66
2023-04-03T08:45:56.981Z,13.15
2023-04-03T08:49:03.172Z,14.16
2023-04-03T08:52:13.877Z,14.07
2023-04-03T08:55:25.093Z,13.78
2023-04-03T08:58:31.155Z,15.25
2023-04-03T09:01:41.991Z,13.82
2023-04-03T09:04:44.047Z,14.18
2023-04-03T09:07:49.949Z,14.88
2023-04-03T09:11:01.789Z,14.20
2023-04-03T09:14:16.253Z,15.07
2023-04-03T09:17:58.491Z,13.04
2023-04-03T09:21:14.839Z,13.08
2023-04-03T09:24:18.400Z,14.69
2023-04-03T09:27:23.233Z,12.99
2023-04-03T09:30:27.063Z,13.95
2023-04-03T09:33:31.236Z,15.03
2023-04-03T09:36:49.974Z,13.17
2023-04-03T09:39:57.135Z,13.90
2023-04-03T09:43:21.043Z,12.43
2023-04-03T09:46:29.424Z,12.71
2023-04-03T09:49:33.705Z,12.39
2023-04-03T09:52:38.705Z,10.22
2023-04-03T09:55:46.835Z,12.84
2023-04-03T09:58:52.114Z,10.03
2023-04-03T10:02:03.064Z,11.71
2023-04-03T10:05:26.384Z,11.48
2023-04-03T10:08:32.848Z,12.90
2023-04-03T10:11:34.950Z,13.10
2023-04-03T10:14:39.389Z,12.24
2023-04-03T10:18:17.982Z,10.82
2023-04-03T10:21:27.705Z,11.17
2023-04-03T10:24:44.204Z,10.27
2023-04-03T10:27:56.557Z,10.39
2023-04-03T10:31:07.576Z,11.13
2023-04-03T10:34:15.606Z,10.83
2023-04-03T10:38:01.298Z,10.40
2023-04-03T10:41:14.079Z,8.94
2023-04-03T10:44:30.840Z,9.75
2023-04-03T10:47:48.310Z,9.59
2023-04-03T10:51:32.225Z,8.66
2023-04-03T10:54:40.875Z,7.82
2023-04-03T10:57:43.636Z,8.21
2023-04-03T11:00:50.003Z,7.52
2023-04-03T11:03:57.554Z,9.53
2023-04-03T11:07:11.155Z,9.21
2023-04-03T11:10:20.443Z,9.27
2023-04-03T11:13:31.996Z,12.37
2023-04-03T11:16:50.917Z,9.72
2023-04-03T11:20:28.440Z,9.71
2023-04-03T11:23:48.299Z,10.16
2023-04-03T11:26:53.442Z,8.51
2023-04-03T11:29:56.157Z,7.89
2023-04-03T11:33:23.436Z,8.15
2023-04-03T11:36:30.082Z,10.50
2023-04-03T11:39:42.503Z,10.08
2023-04-03T11:42:50.634Z,7.99
2023-04-03T11:46:02.031Z,8.71
2023-04-03T11:49:03.897Z,7.99
2023-04-03T11:52:11.953Z,7.40
2023-04-03T11:55:23.030Z,7.10
2023-04-03T11:58:37.265Z,7.18
2023-04-03T12:02:12.127Z,7.07
2023-04-03T12:05:29.646Z,6.85
2023-04-03T12:08:47.024Z,9.60
2023-04-03T12:11:49.666Z,10.13
2023-04-03T12:14:52.698Z,10.73
2023-04-03T12:17:55.100Z,11.83
2023-04-03T12:20:59.100Z,11.61
2023-04-03T12:24:09.625Z,10.83
2023-04-03T12:27:43.401Z,11.94
2023-04-03T12:30:45.991Z,8.82
2023-04-03T12:34:01.921Z,8.17
2023-04-03T12:37:29.375Z,7.95
2023-04-03T12:40:57.661Z,7.12
2023-04-03T12:44:20.492Z,7.08
2023-04-03T12:47:39.075Z,6.52
2023-04-03T12:50:42.888Z,6.12
2023-04-03T12:53:46.315Z,5.73
2023-04-03T12:56:48.389Z,5.88
2023-04-03T12:59:50.881Z,5.16
2023-04-03T13:02:53.050Z,5.37
2023-04-03T13:06:02.783Z,5.34
2023-04-03T13:09:05.389Z,5.45
2023-04-03T13:12:17.981Z,5.28
2023-04-03T13:15:26.750Z,5.51
2023-04-03T13:18:28.881Z,5.60
2023-04-03T13:21:34.207Z,5.95
2023-04-03T13:24:40.082Z,5.59
2023-04-03T13:27:45.017Z,6.24
2023-04-03T13:31:04.286Z,5.90
2023-04-03T13:34:18.102Z,5.44
2023-04-03T13:37:35.488Z,5.30
2023-04-03T13:41:02.496Z,4.92
2023-04-03T13:44:23.113Z,5.13
2023-04-03T13:47:26.277Z,4.74
2023-04-03T13:50:31.009Z,4.49
2023-04-03T13:53:45.373Z,4.88
2023-04-03T13:56:50.152Z,5.07
2023-04-03T13:59:52.921Z,5.12
2023-04-03T14:02:58.000Z,5.22
2023-04-03T14:06:02.432Z,5.46
2023-04-03T14:09:04.460Z,4.77
2023-04-03T14:12:30.100Z,4.10
2023-04-03T14:15:33.592Z,4.36
2023-04-03T14:18:35.656Z,4.76
2023-04-03T14:21:37.965Z,4.47
2023-04-03T14:24:40.805Z,4.33
2023-04-03T14:27:45.238Z,4.01
2023-04-03T14:31:21.902Z,4.23
2023-04-03T14:38:15.758Z,4.15
2023-04-03T14:41:27.859Z,4.03
2023-04-03T14:44:32.645Z,3.99
2023-04-03T14:47:45.372Z,3.72
2023-04-03T14:51:16.309Z,3.59
2023-04-03T14:54:22.638Z,3.33
2023-04-03T14:57:27.188Z,3.25
2023-04-03T15:00:47.819Z,3.30
2023-04-03T15:03:51.825Z,3.32
2023-04-03T15:06:54.196Z,3.09
2023-04-03T15:09:59.069Z,3.14
2023-04-03T15:13:01.584Z,2.84
2023-04-03T15:16:04.682Z,2.92
2023-04-03T15:19:06.618Z,2.81
2023-04-03T15:22:15.021Z,2.67
2023-04-03T15:25:17.580Z,2.47
2023-04-03T15:28:26.370Z,2.42
2023-04-03T15:31:28.803Z,2.54
2023-04-03T15:34:31.518Z,2.44
2023-04-03T15:37:33.570Z,1.95
2023-04-03T15:40:35.811Z,1.86
2023-04-03T15:43:40.851Z,2.09
2023-04-03T15:46:42.717Z,2.16
2023-04-03T15:49:44.946Z,1.92
2023-04-03T15:52:46.947Z,1.84
2023-04-03T15:55:49.021Z,1.71
2023-04-03T15:58:51.062Z,1.68
2023-04-03T16:01:54.520Z,1.40
2023-04-03T16:04:56.675Z,1.17
2023-04-03T16:08:01.287Z,1.18
2023-04-03T16:11:03.520Z,1.10
2023-04-03T16:14:05.641Z,1.11
2023-04-03T16:17:07.567Z,1.05
2023-04-03T16:20:12.749Z,0.64
2023-04-03T16:23:15.384Z,0.63
2023-04-03T16:26:18.457Z,0.49
2023-04-03T16:29:20.523Z,0.35
2023-04-03T16:32:23.535Z,0.37
2023-04-03T16:35:28.560Z,0.20
2023-04-03T16:38:33.222Z,0.35
2023-04-03T16:41:35.470Z,0.25
2023-04-03T16:44:40.784Z,-0.01
2023-04-03T16:47:59.492Z,-0.07
2023-04-03T16:51:06.064Z,-0.26
2023-04-03T16:54:10.978Z,-0.24
2023-04-03T16:57:15.233Z,-0.31
2023-04-03T17:00:20.624Z,-0.34
2023-04-03T17:03:30.334Z,-0.43
2023-04-03T17:06:36.172Z,-0.77
2023-04-03T17:09:41.534Z,-0.72
2023-04-03T17:12:47.887Z,-0.62
2023-04-03T17:15:50.039Z,-0.66
2023-04-03T17:18:54.119Z,-0.67
2023-04-03T17:21:56.185Z,-0.71
2023-04-03T17:24:58.486Z,-0.70
2023-04-03T17:28:00.313Z,-0.84
2023-04-03T17:31:03.520Z,-0.81
2023-04-03T17:34:05.644Z,-0.87
2023-04-03T17:37:07.644Z,-0.93
2023-04-03T17:40:10.263Z,-1.06
2023-04-03T17:43:12.638Z,-1.02
2023-04-03T17:46:16.821Z,-1.00
2023-04-03T17:49:20.642Z,-1.10
2023-04-03T17:52:25.510Z,-1.11
2023-04-03T17:55:27.544Z,-1.07
2023-04-03T17:58:29.836Z,-1.08
2023-04-03T18:01:35.961Z,-1.22
2023-04-03T18:04:39.332Z,-1.14
2023-04-03T18:07:41.733Z,-1.15
2023-04-03T18:10:43.712Z,-1.23
2023-04-03T18:13:46.646Z,-1.38
2023-04-03T18:16:51.852Z,-1.37
2023-04-03T18:19:53.932Z,-1.30
2023-04-03T18:22:57.292Z,-1.28
2023-04-03T18:26:02.358Z,-1.28
2023-04-03T18:29:08.466Z,-1.30
2023-04-03T18:32:14.752Z,-1.40
2023-04-03T18:35:17.087Z,-1.40
2023-04-03T18:38:19.197Z,-1.41
2023-04-03T18:41:27.593Z,-1.61
2023-04-03T18:44:31.494Z,-1.45
2023-04-03T18:47:33.973Z,-1.41
2023-04-03T18:50:36.292Z,-1.50
2023-04-03T18:56:45.877Z,-1.47
2023-04-03T18:59:47.876Z,-1.51
2023-04-03T19:02:50.170Z,-1.51
2023-04-03T19:05:52.389Z,-1.59
2023-04-03T19:08:55.726Z,-1.66
2023-04-03T19:11:57.978Z,-1.59
2023-04-03T19:15:00.214Z,-1.64
2023-04-03T19:18:02.452Z,-1.57
2023-04-03T19:21:04.768Z,-1.67
2023-04-03T19:24:11.842Z,-1.71
2023-04-03T19:27:14.777Z,-1.72
2023-04-03T19:30:17.472Z,-1.69
2023-04-03T19:33:21.242Z,-1.73
2023-04-03T19:36:23.522Z,-1.73
2023-04-03T19:39:26.591Z,-1.79
2023-04-03T19:42:30.052Z,-1.84
2023-04-03T19:45:32.950Z,-1.82
2023-04-03T19:48:37.301Z,-1.78
2023-04-03T19:51:39.506Z,-1.74
2023-04-03T19:54:41.667Z,-1.80
2023-04-03T19:57:44.326Z,-1.83
2023-04-03T20:00:46.703Z,-1.83
2023-04-03T20:03:48.739Z,-1.81
2023-04-03T20:06:57.023Z,-1.78
2023-04-03T20:09:58.954Z,-1.79
2023-04-03T20:13:01.026Z,-1.77
2023-04-03T20:16:05.109Z,-1.70
2023-04-03T20:19:07.899Z,-1.80
2023-04-03T20:22:09.997Z,-1.81
2023-04-03T20:25:17.516Z,-1.85
2023-04-03T20:28:26.060Z,-1.85
2023-04-03T20:31:28.745Z,-1.86
2023-04-03T20:34:30.742Z,-1.88
2023-04-03T20:37:32.884Z,-1.91
2023-04-03T20:40:37.806Z,-1.94
2023-04-03T20:43:40.279Z,-1.97
2023-04-03T20:46:52.763Z,-1.99
2023-04-03T20:49:55.776Z,-1.99
2023-04-03T20:52:57.813Z,-1.89
2023-04-03T20:56:01.729Z,-1.87
2023-04-03T20:59:05.362Z,-1.89
2023-04-03T21:02:07.334Z,-1.89
2023-04-03T21:05:10.195Z,-1.93
2023-04-03T21:08:49.525Z,-1.90
2023-04-03T21:12:28.676Z,-1.94
2023-04-03T21:16:00.111Z,-1.86
2023-04-03T21:19:12.363Z,-1.98
2023-04-03T21:22:16.157Z,-1.93
2023-04-03T21:25:18.033Z,-1.96
2023-04-03T21:28:20.065Z,-2.03
2023-04-03T21:31:22.795Z,-2.00
2023-04-03T21:34:28.617Z,-1.95
2023-04-03T21:37:33.637Z,-1.93
2023-04-03T21:40:35.672Z,-2.01
2023-04-03T21:43:37.546Z,-2.03
2023-04-03T21:46:39.529Z,-2.02
2023-04-03T21:49:41.710Z,-1.98
2023-04-03T21:52:44.103Z,-2.01
2023-04-03T21:55:55.817Z,-2.04
2023-04-03T21:59:00.887Z,-2.00
2023-04-03T22:02:03.035Z,-1.98
2023-04-03T22:05:05.463Z,-2.10
2023-04-03T22:08:07.697Z,-2.05
2023-04-03T22:11:12.886Z,-2.13
2023-04-03T22:14:14.896Z,-2.07
2023-04-03T22:17:17.057Z,-2.05
2023-04-03T22:20:18.983Z,-2.01
2023-04-03T22:23:21.558Z,-2.10
2023-04-03T22:26:23.467Z,-2.11
2023-04-03T22:29:25.509Z,-2.05
2023-04-03T22:32:27.646Z,-2.07
2023-04-03T22:35:29.527Z,-2.09
2023-04-03T22:38:31.474Z,-2.07
2023-04-03T22:41:33.392Z,-2.09
2023-04-03T22:44:36.601Z,-2.07
2023-04-03T22:47:38.621Z,-2.15
2023-04-03T22:50:40.833Z,-2.11
2023-04-03T22:53:42.918Z,-2.08
2023-04-03T22:56:44.825Z,-2.12
2023-04-03T22:59:46.893Z,-2.09
2023-04-03T23:02:48.823Z,-2.08
2023-04-03T23:05:53.877Z,-2.11
2023-04-03T23:08:56.157Z,-2.10
2023-04-03T23:11:58.592Z,-2.13
2023-04-03T23:15:00.670Z,-2.14
2023-04-03T23:18:02.632Z,-2.09
2023-04-03T23:21:04.819Z,-2.20
2023-04-03T23:24:06.995Z,-2.15
2023-04-03T23:27:08.778Z,-2.18
2023-04-03T23:30:11.087Z,-2.18
2023-04-03T23:33:13.279Z,-2.21
2023-04-03T23:36:18.600Z,-2.24
2023-04-03T23:39:22.067Z,-2.21
2023-04-03T23:42:23.967Z,-2.23
2023-04-03T23:45:27.078Z,-2.25
2023-04-03T23:48:29.040Z,-2.27
2023-04-03T23:51:30.945Z,-2.28
2023-04-03T23:54:33.435Z,-2.28
2023-04-03T23:57:35.730Z,-2.25
